sensor_id;sensor_type;location;lat;lon;timestamp;pressure;altitude;pressure_sealevel;temperature;humidity
51259;BME280;37327;54.254;18.504;2022-11-15T00:02:10;101197.66;;;6.80;100.00
51259;BME280;37327;54.254;18.504;2022-11-15T00:05:43;101189.16;;;6.75;100.00
51259;BME280;37327;54.254;18.504;2022-11-15T00:08:50;101188.46;;;6.72;100.00
51259;BME280;37327;54.254;18.504;2022-11-15T00:11:57;101187.76;;;6.70;100.00
51259;BME280;37327;54.254;18.504;2022-11-15T00:15:05;101181.25;;;6.73;100.00
51259;BME280;37327;54.254;18.504;2022-11-15T00:18:15;101172.93;;;6.76;100.00
51259;BME280;37327;54.254;18.504;2022-11-15T00:21:24;101168.14;;;6.80;100.00
51259;BME280;37327;54.254;18.504;2022-11-15T00:24:56;101176.02;;;6.81;100.00
51259;BME280;37327;54.254;18.504;2022-11-15T00:28:03;101175.18;;;6.81;100.00
51259;BME280;37327;54.254;18.504;2022-11-15T00:31:14;101165.98;;;6.73;100.00
51259;BME280;37327;54.254;18.504;2022-11-15T00:34:21;101176.88;;;6.72;100.00
51259;BME280;37327;54.254;18.504;2022-11-15T00:37:27;101168.67;;;6.73;100.00
51259;BME280;37327;54.254;18.504;2022-11-15T00:40:34;101173.06;;;6.75;100.00
51259;BME280;37327;54.254;18.504;2022-11-15T00:44:07;101174.74;;;6.76;100.00
51259;BME280;37327;54.254;18.504;2022-11-15T00:47:13;101175.04;;;6.72;100.00
51259;BME280;37327;54.254;18.504;2022-11-15T00:50:20;101171.36;;;6.73;100.00
51259;BME280;37327;54.254;18.504;2022-11-15T00:53:27;101168.97;;;6.70;100.00
51259;BME280;37327;54.254;18.504;2022-11-15T00:56:34;101165.58;;;6.68;100.00
51259;BME280;37327;54.254;18.504;2022-11-15T00:59:41;101155.12;;;6.65;100.00
51259;BME280;37327;54.254;18.504;2022-11-15T01:02:48;101155.42;;;6.62;100.00
51259;BME280;37327;54.254;18.504;2022-11-15T01:06:20;101152.55;;;6.54;100.00
51259;BME280;37327;54.254;18.504;2022-11-15T01:09:28;101142.12;;;6.51;100.00
51259;BME280;37327;54.254;18.504;2022-11-15T01:12:35;101142.81;;;6.43;100.00
51259;BME280;37327;54.254;18.504;2022-11-15T01:15:42;101134.50;;;6.37;100.00
51259;BME280;37327;54.254;18.504;2022-11-15T01:18:48;101133.93;;;6.33;100.00
51259;BME280;37327;54.254;18.504;2022-11-15T01:21:56;101130.53;;;6.31;100.00
51259;BME280;37327;54.254;18.504;2022-11-15T01:25:30;101124.59;;;6.27;100.00
51259;BME280;37327;54.254;18.504;2022-11-15T01:28:38;101122.75;;;6.28;100.00
51259;BME280;37327;54.254;18.504;2022-11-15T01:31:45;101111.89;;;6.29;100.00
51259;BME280;37327;54.254;18.504;2022-11-15T01:34:52;101109.08;;;6.31;100.00
51259;BME280;37327;54.254;18.504;2022-11-15T01:37:59;101103.41;;;6.34;100.00
51259;BME280;37327;54.254;18.504;2022-11-15T01:41:06;101098.63;;;6.38;100.00
51259;BME280;37327;54.254;18.504;2022-11-15T01:47:55;101093.52;;;6.35;100.00
51259;BME280;37327;54.254;18.504;2022-11-15T01:51:07;101086.76;;;6.30;100.00
51259;BME280;37327;54.254;18.504;2022-11-15T01:54:16;101070.97;;;6.27;100.00
51259;BME280;37327;54.254;18.504;2022-11-15T01:57:24;101078.01;;;6.28;100.00
51259;BME280;37327;54.254;18.504;2022-11-15T02:00:57;101083.37;;;6.28;100.00
51259;BME280;37327;54.254;18.504;2022-11-15T02:04:13;101077.03;;;6.29;100.00
51259;BME280;37327;54.254;18.504;2022-11-15T02:07:21;101076.02;;;6.30;100.00
51259;BME280;37327;54.254;18.504;2022-11-15T02:10:28;101059.95;;;6.30;100.00
51259;BME280;37327;54.254;18.504;2022-11-15T02:13:36;101054.57;;;6.30;100.00
51259;BME280;37327;54.254;18.504;2022-11-15T02:17:22;101049.52;;;6.27;100.00
51259;BME280;37327;54.254;18.504;2022-11-15T02:27:14;101040.77;;;6.25;100.00
51259;BME280;37327;54.254;18.504;2022-11-15T02:41:16;101035.97;;;6.19;100.00
51259;BME280;37327;54.254;18.504;2022-11-15T02:47:46;101034.96;;;6.20;100.00
51259;BME280;37327;54.254;18.504;2022-11-15T02:50:54;101028.89;;;6.18;100.00
51259;BME280;37327;54.254;18.504;2022-11-15T02:54:30;101026.64;;;6.13;100.00
51259;BME280;37327;54.254;18.504;2022-11-15T03:08:07;101009.68;;;6.03;100.00
51259;BME280;37327;54.254;18.504;2022-11-15T03:11:20;101014.63;;;5.98;100.00
51259;BME280;37327;54.254;18.504;2022-11-15T03:14:40;101012.32;;;5.93;100.00
51259;BME280;37327;54.254;18.504;2022-11-15T03:21:30;101000.63;;;5.94;100.00
51259;BME280;37327;54.254;18.504;2022-11-15T03:24:39;101006.60;;;5.98;100.00
51259;BME280;37327;54.254;18.504;2022-11-15T03:27:52;101003.78;;;6.00;100.00
51259;BME280;37327;54.254;18.504;2022-11-15T03:31:02;101002.07;;;5.99;100.00
51259;BME280;37327;54.254;18.504;2022-11-15T03:48:29;100985.12;;;5.88;100.00
51259;BME280;37327;54.254;18.504;2022-11-15T03:51:37;100983.98;;;5.91;100.00
51259;BME280;37327;54.254;18.504;2022-11-15T03:54:50;100978.75;;;5.89;100.00
51259;BME280;37327;54.254;18.504;2022-11-15T03:58:25;100984.28;;;5.88;100.00
51259;BME280;37327;54.254;18.504;2022-11-15T04:01:31;100989.47;;;5.89;100.00
51259;BME280;37327;54.254;18.504;2022-11-15T04:04:38;100985.95;;;5.89;100.00
51259;BME280;37327;54.254;18.504;2022-11-15T04:07:44;100990.47;;;5.88;100.00
51259;BME280;37327;54.254;18.504;2022-11-15T04:10:52;100979.45;;;5.91;100.00
51259;BME280;37327;54.254;18.504;2022-11-15T04:13:59;100983.01;;;5.92;100.00
51259;BME280;37327;54.254;18.504;2022-11-15T04:17:06;100973.96;;;5.93;100.00
51259;BME280;37327;54.254;18.504;2022-11-15T04:20:38;100965.36;;;5.89;100.00
51259;BME280;37327;54.254;18.504;2022-11-15T04:23:56;100975.23;;;5.89;100.00
51259;BME280;37327;54.254;18.504;2022-11-15T04:27:15;100973.56;;;5.88;100.00
51259;BME280;37327;54.254;18.504;2022-11-15T04:30:22;100976.37;;;5.86;100.00
51259;BME280;37327;54.254;18.504;2022-11-15T04:33:55;100973.82;;;5.85;100.00
51259;BME280;37327;54.254;18.504;2022-11-15T04:37:02;100974.40;;;5.88;100.00
51259;BME280;37327;54.254;18.504;2022-11-15T04:40:20;100976.94;;;5.90;100.00
51259;BME280;37327;54.254;18.504;2022-11-15T04:43:28;100982.00;;;5.93;100.00
51259;BME280;37327;54.254;18.504;2022-11-15T04:46:34;100967.50;;;5.96;100.00
51259;BME280;37327;54.254;18.504;2022-11-15T04:50:08;100965.55;;;5.98;100.00
51259;BME280;37327;54.254;18.504;2022-11-15T04:53:19;100968.06;;;5.99;100.00
51259;BME280;37327;54.254;18.504;2022-11-15T04:56:25;100958.22;;;6.00;100.00
51259;BME280;37327;54.254;18.504;2022-11-15T04:59:32;100966.26;;;6.00;100.00
51259;BME280;37327;54.254;18.504;2022-11-15T05:02:39;100955.54;;;6.00;100.00
51259;BME280;37327;54.254;18.504;2022-11-15T05:06:23;100957.75;;;5.94;100.00
51259;BME280;37327;54.254;18.504;2022-11-15T05:09:30;100947.30;;;5.91;100.00
51259;BME280;37327;54.254;18.504;2022-11-15T05:12:37;100940.27;;;5.90;100.00
51259;BME280;37327;54.254;18.504;2022-11-15T05:15:44;100940.39;;;5.89;100.00
51259;BME280;37327;54.254;18.504;2022-11-15T05:18:52;100943.91;;;5.89;100.00
51259;BME280;37327;54.254;18.504;2022-11-15T05:21:59;100942.23;;;5.88;100.00
51259;BME280;37327;54.254;18.504;2022-11-15T05:25:36;100951.55;;;5.84;100.00
51259;BME280;37327;54.254;18.504;2022-11-15T05:28:43;100960.86;;;5.80;100.00
51259;BME280;37327;54.254;18.504;2022-11-15T05:31:50;100962.66;;;5.70;100.00
51259;BME280;37327;54.254;18.504;2022-11-15T05:34:57;100950.96;;;5.61;100.00
51259;BME280;37327;54.254;18.504;2022-11-15T05:38:05;100963.64;;;5.59;100.00
51259;BME280;37327;54.254;18.504;2022-11-15T05:41:11;100957.58;;;5.57;100.00
51259;BME280;37327;54.254;18.504;2022-11-15T05:44:47;100956.74;;;5.57;100.00
51259;BME280;37327;54.254;18.504;2022-11-15T05:47:56;100956.00;;;5.54;100.00
51259;BME280;37327;54.254;18.504;2022-11-15T05:51:07;100948.13;;;5.53;100.00
51259;BME280;37327;54.254;18.504;2022-11-15T05:54:14;100951.77;;;5.52;100.00
51259;BME280;37327;54.254;18.504;2022-11-15T05:57:22;100961.07;;;5.48;100.00
51259;BME280;37327;54.254;18.504;2022-11-15T06:00:58;100958.40;;;5.48;100.00
51259;BME280;37327;54.254;18.504;2022-11-15T06:04:05;100957.27;;;5.50;100.00
51259;BME280;37327;54.254;18.504;2022-11-15T06:07:12;100960.64;;;5.52;100.00
51259;BME280;37327;54.254;18.504;2022-11-15T06:10:19;100965.03;;;5.53;100.00
51259;BME280;37327;54.254;18.504;2022-11-15T06:13:25;100964.91;;;5.55;100.00
51259;BME280;37327;54.254;18.504;2022-11-15T06:16:32;100966.71;;;5.54;100.00
51259;BME280;37327;54.254;18.504;2022-11-15T06:19:39;100960.96;;;5.59;100.00
51259;BME280;37327;54.254;18.504;2022-11-15T06:23:11;100963.35;;;5.62;100.00
51259;BME280;37327;54.254;18.504;2022-11-15T06:26:19;100965.89;;;5.64;100.00
51259;BME280;37327;54.254;18.504;2022-11-15T06:29:26;100965.77;;;5.65;100.00
51259;BME280;37327;54.254;18.504;2022-11-15T06:32:32;100960.85;;;5.70;100.00
51259;BME280;37327;54.254;18.504;2022-11-15T06:35:39;100960.69;;;5.72;100.00
51259;BME280;37327;54.254;18.504;2022-11-15T06:38:46;100955.63;;;5.69;100.00
51259;BME280;37327;54.254;18.504;2022-11-15T06:42:21;100953.92;;;5.68;100.00
51259;BME280;37327;54.254;18.504;2022-11-15T06:45:28;100953.21;;;5.66;100.00
51259;BME280;37327;54.254;18.504;2022-11-15T06:48:35;100960.27;;;5.67;100.00
51259;BME280;37327;54.254;18.504;2022-11-15T06:51:42;100963.66;;;5.69;100.00
51259;BME280;37327;54.254;18.504;2022-11-15T06:54:49;100959.14;;;5.69;100.00
51259;BME280;37327;54.254;18.504;2022-11-15T06:57:55;100958.00;;;5.72;100.00
51259;BME280;37327;54.254;18.504;2022-11-15T07:01:10;100964.08;;;5.74;100.00
51259;BME280;37327;54.254;18.504;2022-11-15T07:04:43;100959.45;;;5.76;100.00
51259;BME280;37327;54.254;18.504;2022-11-15T07:07:54;100962.52;;;5.71;100.00
51259;BME280;37327;54.254;18.504;2022-11-15T07:11:03;100964.49;;;5.69;100.00
51259;BME280;37327;54.254;18.504;2022-11-15T07:14:10;100957.16;;;5.71;100.00
51259;BME280;37327;54.254;18.504;2022-11-15T07:17:17;100963.10;;;5.75;100.00
51259;BME280;37327;54.254;18.504;2022-11-15T07:20:24;100966.48;;;5.77;100.00
51259;BME280;37327;54.254;18.504;2022-11-15T07:23:56;100961.82;;;5.79;100.00
51259;BME280;37327;54.254;18.504;2022-11-15T07:27:03;100960.16;;;5.78;100.00
51259;BME280;37327;54.254;18.504;2022-11-15T07:30:11;100962.53;;;5.81;100.00
51259;BME280;37327;54.254;18.504;2022-11-15T07:33:18;100964.24;;;5.82;100.00
51259;BME280;37327;54.254;18.504;2022-11-15T07:36:25;100970.30;;;5.84;100.00
51259;BME280;37327;54.254;18.504;2022-11-15T07:39:32;100960.56;;;5.83;100.00
51259;BME280;37327;54.254;18.504;2022-11-15T07:43:07;100961.40;;;5.84;100.00
51259;BME280;37327;54.254;18.504;2022-11-15T07:46:13;100946.45;;;5.81;100.00
51259;BME280;37327;54.254;18.504;2022-11-15T07:49:20;100962.67;;;5.80;100.00
51259;BME280;37327;54.254;18.504;2022-11-15T07:52:27;100955.20;;;5.83;100.00
51259;BME280;37327;54.254;18.504;2022-11-15T07:55:34;100955.77;;;5.87;100.00
51259;BME280;37327;54.254;18.504;2022-11-15T07:58:41;100958.89;;;5.92;100.00
51259;BME280;37327;54.254;18.504;2022-11-15T08:03:16;100953.13;;;5.97;100.00
51259;BME280;37327;54.254;18.504;2022-11-15T08:06:23;100956.77;;;5.96;100.00
51259;BME280;37327;54.254;18.504;2022-11-15T08:09:30;100956.77;;;5.96;100.00
51259;BME280;37327;54.254;18.504;2022-11-15T08:12:37;100955.34;;;5.91;100.00
51259;BME280;37327;54.254;18.504;2022-11-15T08:15:43;100967.32;;;5.78;100.00
51259;BME280;37327;54.254;18.504;2022-11-15T08:18:51;100975.23;;;5.79;100.00
51259;BME280;37327;54.254;18.504;2022-11-15T08:22:23;100969.60;;;5.82;100.00
51259;BME280;37327;54.254;18.504;2022-11-15T08:25:31;100973.70;;;5.86;100.00
51259;BME280;37327;54.254;18.504;2022-11-15T08:28:39;100963.81;;;5.87;100.00
51259;BME280;37327;54.254;18.504;2022-11-15T08:31:46;100967.06;;;5.90;100.00
51259;BME280;37327;54.254;18.504;2022-11-15T08:34:53;100961.16;;;5.97;100.00
51259;BME280;37327;54.254;18.504;2022-11-15T08:37:59;100960.03;;;5.99;100.00
51259;BME280;37327;54.254;18.504;2022-11-15T08:41:35;100956.07;;;6.03;100.00
51259;BME280;37327;54.254;18.504;2022-11-15T08:44:42;100957.34;;;6.09;100.00
51259;BME280;37327;54.254;18.504;2022-11-15T08:47:49;100956.07;;;6.13;100.00
51259;BME280;37327;54.254;18.504;2022-11-15T08:50:57;100959.46;;;6.15;100.00
51259;BME280;37327;54.254;18.504;2022-11-15T08:54:04;100955.94;;;6.15;100.00
51259;BME280;37327;54.254;18.504;2022-11-15T08:57:13;100959.89;;;6.10;100.00
51259;BME280;37327;54.254;18.504;2022-11-15T09:00:45;100951.72;;;6.12;100.00
51259;BME280;37327;54.254;18.504;2022-11-15T09:03:52;100955.94;;;6.15;100.00
51259;BME280;37327;54.254;18.504;2022-11-15T09:07:00;100954.53;;;6.20;100.00
51259;BME280;37327;54.254;18.504;2022-11-15T09:10:08;100950.57;;;6.24;100.00
51259;BME280;37327;54.254;18.504;2022-11-15T09:13:16;100940.27;;;6.29;100.00
51259;BME280;37327;54.254;18.504;2022-11-15T09:16:24;100949.72;;;6.33;100.00
51259;BME280;37327;54.254;18.504;2022-11-15T09:19:58;100949.28;;;6.38;100.00
51259;BME280;37327;54.254;18.504;2022-11-15T09:23:07;100950.85;;;6.41;100.00
51259;BME280;37327;54.254;18.504;2022-11-15T09:26:15;100951.55;;;6.43;100.00
51259;BME280;37327;54.254;18.504;2022-11-15T09:29:24;100942.80;;;6.41;100.00
51259;BME280;37327;54.254;18.504;2022-11-15T09:32:31;100942.22;;;6.47;100.00
51259;BME280;37327;54.254;18.504;2022-11-15T09:35:38;100933.03;;;6.49;100.00
51259;BME280;37327;54.254;18.504;2022-11-15T09:39:12;100944.32;;;6.53;100.00
51259;BME280;37327;54.254;18.504;2022-11-15T09:48:57;100935.96;;;6.56;100.00
51259;BME280;37327;54.254;18.504;2022-11-15T09:52:30;100935.13;;;6.56;100.00
51259;BME280;37327;54.254;18.504;2022-11-15T09:59:13;100923.28;;;6.58;100.00
51259;BME280;37327;54.254;18.504;2022-11-15T10:06:03;100920.15;;;6.63;100.00
51259;BME280;37327;54.254;18.504;2022-11-15T10:09:23;100919.00;;;6.65;100.00
51259;BME280;37327;54.254;18.504;2022-11-15T10:12:31;100918.73;;;6.68;100.00
51259;BME280;37327;54.254;18.504;2022-11-15T10:15:38;100914.90;;;6.71;100.00
51259;BME280;37327;54.254;18.504;2022-11-15T10:22:39;100895.52;;;6.77;100.00
51259;BME280;37327;54.254;18.504;2022-11-15T10:25:48;100903.42;;;6.79;100.00
51259;BME280;37327;54.254;18.504;2022-11-15T10:28:56;100895.66;;;6.76;100.00
51259;BME280;37327;54.254;18.504;2022-11-15T10:32:03;100891.59;;;6.71;100.00
51259;BME280;37327;54.254;18.504;2022-11-15T10:38:58;100896.45;;;6.58;100.00
51259;BME280;37327;54.254;18.504;2022-11-15T10:45:26;100890.92;;;6.60;100.00
51259;BME280;37327;54.254;18.504;2022-11-15T10:48:36;100894.60;;;6.59;100.00
51259;BME280;37327;54.254;18.504;2022-11-15T10:51:50;100890.80;;;6.51;100.00
51259;BME280;37327;54.254;18.504;2022-11-15T10:55:31;100901.17;;;6.37;100.00
51259;BME280;37327;54.254;18.504;2022-11-15T10:58:42;100899.91;;;6.31;100.00
51259;BME280;37327;54.254;18.504;2022-11-15T11:01:50;100904.70;;;6.27;100.00
51259;BME280;37327;54.254;18.504;2022-11-15T11:04:59;100899.63;;;6.24;100.00
51259;BME280;37327;54.254;18.504;2022-11-15T11:11:54;100888.77;;;6.26;100.00
51259;BME280;37327;54.254;18.504;2022-11-15T11:15:09;100899.34;;;6.27;100.00
51259;BME280;37327;54.254;18.504;2022-11-15T11:18:34;100897.09;;;6.23;100.00
51259;BME280;37327;54.254;18.504;2022-11-15T11:21:49;100892.01;;;6.29;100.00
51259;BME280;37327;54.254;18.504;2022-11-15T11:25:30;100884.94;;;6.28;100.00
51259;BME280;37327;54.254;18.504;2022-11-15T11:35:55;100893.40;;;6.33;100.00
51259;BME280;37327;54.254;18.504;2022-11-15T11:49:39;100869.91;;;6.55;100.00
51259;BME280;37327;54.254;18.504;2022-11-15T11:56:37;100856.00;;;6.69;100.00
51259;BME280;37327;54.254;18.504;2022-11-15T11:59:54;100858.27;;;6.74;100.00
51259;BME280;37327;54.254;18.504;2022-11-15T12:03:12;100853.73;;;6.75;100.00
51259;BME280;37327;54.254;18.504;2022-11-15T12:13:26;100855.31;;;6.67;100.00
51259;BME280;37327;54.254;18.504;2022-11-15T12:16:41;100860.67;;;6.67;100.00
51259;BME280;37327;54.254;18.504;2022-11-15T12:19:49;100853.91;;;6.63;100.00
51259;BME280;37327;54.254;18.504;2022-11-15T12:23:27;100864.51;;;6.65;100.00
51259;BME280;37327;54.254;18.504;2022-11-15T12:26:49;100860.39;;;6.70;100.00
51259;BME280;37327;54.254;18.504;2022-11-15T12:29:54;100864.75;;;6.71;100.00
51259;BME280;37327;54.254;18.504;2022-11-15T12:33:03;100852.02;;;6.73;100.00
51259;BME280;37327;54.254;18.504;2022-11-15T12:36:42;100851.05;;;6.75;100.00
51259;BME280;37327;54.254;18.504;2022-11-15T12:50:13;100865.45;;;6.73;100.00
51259;BME280;37327;54.254;18.504;2022-11-15T12:53:32;100858.27;;;6.74;100.00
51259;BME280;37327;54.254;18.504;2022-11-15T12:56:39;100852.44;;;6.79;100.00
51259;BME280;37327;54.254;18.504;2022-11-15T12:59:56;100861.88;;;6.83;100.00
51259;BME280;37327;54.254;18.504;2022-11-15T13:03:36;100854.84;;;6.82;100.00
51259;BME280;37327;54.254;18.504;2022-11-15T13:06:49;100855.82;;;6.81;100.00
51259;BME280;37327;54.254;18.504;2022-11-15T13:09:56;100846.10;;;6.80;100.00
51259;BME280;37327;54.254;18.504;2022-11-15T13:13:08;100849.15;;;6.85;100.00
51259;BME280;37327;54.254;18.504;2022-11-15T13:16:20;100849.01;;;6.86;100.00
51259;BME280;37327;54.254;18.504;2022-11-15T13:20:00;100837.17;;;6.79;100.00
51259;BME280;37327;54.254;18.504;2022-11-15T13:23:12;100838.46;;;6.75;100.00
51259;BME280;37327;54.254;18.504;2022-11-15T13:26:21;100837.63;;;6.75;100.00
51259;BME280;37327;54.254;18.504;2022-11-15T13:29:29;100839.34;;;6.66;100.00
51259;BME280;37327;54.254;18.504;2022-11-15T13:32:38;100831.48;;;6.64;100.00
51259;BME280;37327;54.254;18.504;2022-11-15T13:36:23;100823.01;;;6.59;100.00
51259;BME280;37327;54.254;18.504;2022-11-15T13:39:33;100830.36;;;6.57;100.00
51259;BME280;37327;54.254;18.504;2022-11-15T13:42:43;100827.68;;;6.57;100.00
51259;BME280;37327;54.254;18.504;2022-11-15T13:49:34;100826.94;;;6.65;100.00
51259;BME280;37327;54.254;18.504;2022-11-15T13:52:43;100830.04;;;6.70;100.00
51259;BME280;37327;54.254;18.504;2022-11-15T13:55:54;100830.88;;;6.70;100.00
51259;BME280;37327;54.254;18.504;2022-11-15T13:59:10;100828.48;;;6.67;100.00
51259;BME280;37327;54.254;18.504;2022-11-15T14:02:29;100836.98;;;6.63;100.00
51259;BME280;37327;54.254;18.504;2022-11-15T14:06:11;100828.84;;;6.55;100.00
51259;BME280;37327;54.254;18.504;2022-11-15T14:09:32;100830.55;;;6.46;100.00
51259;BME280;37327;54.254;18.504;2022-11-15T14:12:54;100822.81;;;6.43;100.00
51259;BME280;37327;54.254;18.504;2022-11-15T14:19:45;100827.20;;;6.34;100.00
51259;BME280;37327;54.254;18.504;2022-11-15T14:22:56;100829.32;;;6.30;100.00
51259;BME280;37327;54.254;18.504;2022-11-15T14:26:04;100817.80;;;6.20;100.00
51259;BME280;37327;54.254;18.504;2022-11-15T14:32:56;100813.88;;;6.05;100.00
51259;BME280;37327;54.254;18.504;2022-11-15T14:39:17;100809.11;;;5.99;100.00
51259;BME280;37327;54.254;18.504;2022-11-15T14:42:28;100811.49;;;5.92;100.00
51259;BME280;37327;54.254;18.504;2022-11-15T14:45:36;100812.91;;;5.86;100.00
51259;BME280;37327;54.254;18.504;2022-11-15T14:49:08;100808.84;;;5.82;100.00
51259;BME280;37327;54.254;18.504;2022-11-15T14:55:41;100807.13;;;5.81;100.00
51259;BME280;37327;54.254;18.504;2022-11-15T14:58:49;100809.69;;;5.73;100.00
51259;BME280;37327;54.254;18.504;2022-11-15T15:02:26;100809.95;;;5.70;100.00
51259;BME280;37327;54.254;18.504;2022-11-15T15:05:38;100805.74;;;5.67;100.00
51259;BME280;37327;54.254;18.504;2022-11-15T15:08:46;100813.91;;;5.66;100.00
51259;BME280;37327;54.254;18.504;2022-11-15T15:11:56;100807.72;;;5.65;100.00
51259;BME280;37327;54.254;18.504;2022-11-15T15:15:03;100808.29;;;5.69;100.00
51259;BME280;37327;54.254;18.504;2022-11-15T15:18:38;100803.50;;;5.63;100.00
51259;BME280;37327;54.254;18.504;2022-11-15T15:21:44;100789.80;;;5.66;100.00
51259;BME280;37327;54.254;18.504;2022-11-15T15:24:51;100785.57;;;5.73;100.00
51259;BME280;37327;54.254;18.504;2022-11-15T15:27:59;100786.70;;;5.80;100.00
51259;BME280;37327;54.254;18.504;2022-11-15T15:31:08;100790.77;;;5.84;100.00
51259;BME280;37327;54.254;18.504;2022-11-15T15:34:15;100791.62;;;5.85;100.00
51259;BME280;37327;54.254;18.504;2022-11-15T15:37:58;100786.68;;;5.90;100.00
51259;BME280;37327;54.254;18.504;2022-11-15T15:41:10;100793.02;;;5.99;100.00
51259;BME280;37327;54.254;18.504;2022-11-15T15:44:16;100794.42;;;6.03;100.00
51259;BME280;37327;54.254;18.504;2022-11-15T15:47:23;100795.82;;;6.07;100.00
51259;BME280;37327;54.254;18.504;2022-11-15T15:50:33;100783.80;;;6.11;100.00
51259;BME280;37327;54.254;18.504;2022-11-15T15:53:40;100785.38;;;6.13;100.00
51259;BME280;37327;54.254;18.504;2022-11-15T15:57:13;100777.02;;;6.17;100.00
51259;BME280;37327;54.254;18.504;2022-11-15T16:00:23;100773.05;;;6.21;100.00
51259;BME280;37327;54.254;18.504;2022-11-15T16:03:31;100771.95;;;6.23;100.00
51259;BME280;37327;54.254;18.504;2022-11-15T16:06:39;100773.61;;;6.24;100.00
51259;BME280;37327;54.254;18.504;2022-11-15T16:09:50;100779.52;;;6.28;100.00
51259;BME280;37327;54.254;18.504;2022-11-15T16:13:31;100779.67;;;6.26;100.00
51259;BME280;37327;54.254;18.504;2022-11-15T16:16:38;100783.22;;;6.27;100.00
51259;BME280;37327;54.254;18.504;2022-11-15T16:19:45;100782.06;;;6.29;100.00
51259;BME280;37327;54.254;18.504;2022-11-15T16:22:51;100782.06;;;6.29;100.00
51259;BME280;37327;54.254;18.504;2022-11-15T16:25:58;100777.68;;;6.28;100.00
51259;BME280;37327;54.254;18.504;2022-11-15T16:29:09;100776.56;;;6.31;100.00
51259;BME280;37327;54.254;18.504;2022-11-15T16:32:42;100784.75;;;6.29;100.00
51259;BME280;37327;54.254;18.504;2022-11-15T16:35:48;100789.80;;;6.32;100.00
51259;BME280;37327;54.254;18.504;2022-11-15T16:38:59;100777.09;;;6.35;100.00
51259;BME280;37327;54.254;18.504;2022-11-15T16:42:06;100784.16;;;6.36;100.00
51259;BME280;37327;54.254;18.504;2022-11-15T16:45:12;100776.80;;;6.38;100.00
51259;BME280;37327;54.254;18.504;2022-11-15T16:48:25;100784.02;;;6.37;100.00
51259;BME280;37327;54.254;18.504;2022-11-15T16:51:59;100777.68;;;6.28;100.00
51259;BME280;37327;54.254;18.504;2022-11-15T16:55:06;100784.19;;;6.26;100.00
51259;BME280;37327;54.254;18.504;2022-11-15T16:58:13;100778.42;;;6.21;100.00
51259;BME280;37327;54.254;18.504;2022-11-15T17:01:26;100783.95;;;6.19;100.00
51259;BME280;37327;54.254;18.504;2022-11-15T17:04:33;100781.69;;;6.15;100.00
51259;BME280;37327;54.254;18.504;2022-11-15T17:07:40;100788.20;;;6.12;100.00
51259;BME280;37327;54.254;18.504;2022-11-15T17:11:19;100793.55;;;6.12;100.00
51259;BME280;37327;54.254;18.504;2022-11-15T17:14:25;100796.24;;;6.12;100.00
51259;BME280;37327;54.254;18.504;2022-11-15T17:17:32;100796.24;;;6.12;100.00
51259;BME280;37327;54.254;18.504;2022-11-15T17:20:40;100790.18;;;6.10;100.00
51259;BME280;37327;54.254;18.504;2022-11-15T17:23:48;100790.46;;;6.07;100.00
51259;BME280;37327;54.254;18.504;2022-11-15T17:26:55;100797.52;;;6.08;100.00
51259;BME280;37327;54.254;18.504;2022-11-15T17:30:27;100796.52;;;6.09;100.00
51259;BME280;37327;54.254;18.504;2022-11-15T17:33:36;100795.54;;;6.10;100.00
51259;BME280;37327;54.254;18.504;2022-11-15T17:36:45;100794.70;;;6.09;100.00
51259;BME280;37327;54.254;18.504;2022-11-15T17:39:52;100790.32;;;6.08;100.00
51259;BME280;37327;54.254;18.504;2022-11-15T17:43:00;100795.54;;;6.10;100.00
51259;BME280;37327;54.254;18.504;2022-11-15T17:46:11;100799.50;;;6.06;100.00
51259;BME280;37327;54.254;18.504;2022-11-15T17:49:43;100797.52;;;6.08;100.00
51259;BME280;37327;54.254;18.504;2022-11-15T17:52:51;100799.89;;;6.11;100.00
51259;BME280;37327;54.254;18.504;2022-11-15T17:56:04;100805.43;;;6.09;100.00
51259;BME280;37327;54.254;18.504;2022-11-15T17:59:12;100807.80;;;6.12;100.00
51259;BME280;37327;54.254;18.504;2022-11-15T18:02:18;100809.64;;;6.12;100.00
51259;BME280;37327;54.254;18.504;2022-11-15T18:05:25;100801.60;;;6.12;100.00
51259;BME280;37327;54.254;18.504;2022-11-15T18:08:58;100798.09;;;6.11;100.00
51259;BME280;37327;54.254;18.504;2022-11-15T18:12:05;100794.39;;;6.12;100.00
51259;BME280;37327;54.254;18.504;2022-11-15T18:15:12;100793.24;;;6.15;100.00
51259;BME280;37327;54.254;18.504;2022-11-15T18:18:19;100797.21;;;6.11;100.00
51259;BME280;37327;54.254;18.504;2022-11-15T18:21:28;100780.43;;;6.09;100.00
51259;BME280;37327;54.254;18.504;2022-11-15T18:24:35;100779.45;;;6.10;100.00
51259;BME280;37327;54.254;18.504;2022-11-15T18:28:09;100783.98;;;6.09;100.00
51259;BME280;37327;54.254;18.504;2022-11-15T18:31:23;100784.13;;;6.08;100.00
51259;BME280;37327;54.254;18.504;2022-11-15T18:34:31;100788.64;;;6.07;100.00
51259;BME280;37327;54.254;18.504;2022-11-15T18:37:39;100777.75;;;6.09;100.00
51259;BME280;37327;54.254;18.504;2022-11-15T18:40:46;100793.83;;;6.09;100.00
51259;BME280;37327;54.254;18.504;2022-11-15T18:43:54;100791.47;;;6.06;100.00
51259;BME280;37327;54.254;18.504;2022-11-15T18:47:27;100791.36;;;5.98;100.00
51259;BME280;37327;54.254;18.504;2022-11-15T18:50:37;100793.30;;;5.96;100.00
51259;BME280;37327;54.254;18.504;2022-11-15T18:53:44;100795.98;;;5.96;100.00
51259;BME280;37327;54.254;18.504;2022-11-15T18:56:51;100798.38;;;5.99;100.00